sensor_id;sensor_type;location;lat;lon;timestamp;P1;durP1;ratioP1;P2;durP2;ratioP2
56399;SDS011;42298;53.638;9.876;2024-01-27T00:00:42;26.87;;;6.67;;
56399;SDS011;42298;53.638;9.876;2024-01-27T00:03:08;25.07;;;5.93;;
56399;SDS011;42298;53.638;9.876;2024-01-27T00:05:33;26.80;;;5.73;;
56399;SDS011;42298;53.638;9.876;2024-01-27T00:07:58;22.70;;;5.20;;
56399;SDS011;42298;53.638;9.876;2024-01-27T00:10:23;28.53;;;6.90;;
56399;SDS011;42298;53.638;9.876;2024-01-27T00:12:49;26.43;;;5.97;;
56399;SDS011;42298;53.638;9.876;2024-01-27T00:15:15;25.97;;;5.67;;
56399;SDS011;42298;53.638;9.876;2024-01-27T00:17:41;23.27;;;5.67;;
56399;SDS011;42298;53.638;9.876;2024-01-27T00:20:06;26.40;;;6.00;;
56399;SDS011;42298;53.638;9.876;2024-01-27T00:22:32;29.40;;;6.30;;
56399;SDS011;42298;53.638;9.876;2024-01-27T00:24:57;26.10;;;6.47;;
56399;SDS011;42298;53.638;9.876;2024-01-27T00:27:22;29.77;;;5.90;;
56399;SDS011;42298;53.638;9.876;2024-01-27T00:29:48;24.70;;;5.87;;
56399;SDS011;42298;53.638;9.876;2024-01-27T00:32:13;26.30;;;6.30;;
56399;SDS011;42298;53.638;9.876;2024-01-27T00:34:39;28.73;;;6.13;;
56399;SDS011;42298;53.638;9.876;2024-01-27T00:37:04;22.30;;;5.67;;
56399;SDS011;42298;53.638;9.876;2024-01-27T00:39:31;23.00;;;4.93;;
56399;SDS011;42298;53.638;9.876;2024-01-27T00:41:57;28.87;;;6.20;;
56399;SDS011;42298;53.638;9.876;2024-01-27T00:44:23;33.17;;;5.93;;
56399;SDS011;42298;53.638;9.876;2024-01-27T00:46:49;20.37;;;5.10;;
56399;SDS011;42298;53.638;9.876;2024-01-27T00:49:14;23.87;;;5.83;;
56399;SDS011;42298;53.638;9.876;2024-01-27T00:51:39;26.33;;;5.77;;
56399;SDS011;42298;53.638;9.876;2024-01-27T00:54:04;22.77;;;5.63;;
56399;SDS011;42298;53.638;9.876;2024-01-27T00:56:30;25.27;;;6.17;;
56399;SDS011;42298;53.638;9.876;2024-01-27T00:58:55;29.63;;;6.27;;
56399;SDS011;42298;53.638;9.876;2024-01-27T01:01:20;25.50;;;5.87;;
56399;SDS011;42298;53.638;9.876;2024-01-27T01:03:46;28.87;;;5.60;;
56399;SDS011;42298;53.638;9.876;2024-01-27T01:06:11;26.53;;;6.23;;
56399;SDS011;42298;53.638;9.876;2024-01-27T01:08:37;28.27;;;5.77;;
56399;SDS011;42298;53.638;9.876;2024-01-27T01:11:02;29.27;;;5.90;;
56399;SDS011;42298;53.638;9.876;2024-01-27T01:13:27;22.60;;;5.53;;
56399;SDS011;42298;53.638;9.876;2024-01-27T01:15:53;25.60;;;5.63;;
56399;SDS011;42298;53.638;9.876;2024-01-27T01:18:18;32.03;;;6.77;;
56399;SDS011;42298;53.638;9.876;2024-01-27T01:20:44;22.83;;;5.80;;
56399;SDS011;42298;53.638;9.876;2024-01-27T01:23:09;24.37;;;5.87;;
56399;SDS011;42298;53.638;9.876;2024-01-27T01:25:34;23.90;;;5.73;;
56399;SDS011;42298;53.638;9.876;2024-01-27T01:28:00;34.73;;;6.47;;
56399;SDS011;42298;53.638;9.876;2024-01-27T01:30:25;34.67;;;6.90;;
56399;SDS011;42298;53.638;9.876;2024-01-27T01:32:51;32.07;;;6.43;;
56399;SDS011;42298;53.638;9.876;2024-01-27T01:35:17;23.73;;;5.63;;
56399;SDS011;42298;53.638;9.876;2024-01-27T01:37:42;21.67;;;4.87;;
56399;SDS011;42298;53.638;9.876;2024-01-27T01:40:08;29.57;;;6.87;;
56399;SDS011;42298;53.638;9.876;2024-01-27T01:42:33;30.00;;;6.87;;
56399;SDS011;42298;53.638;9.876;2024-01-27T01:44:59;21.33;;;5.60;;
56399;SDS011;42298;53.638;9.876;2024-01-27T01:47:24;25.60;;;5.57;;
56399;SDS011;42298;53.638;9.876;2024-01-27T01:49:50;23.37;;;5.57;;
56399;SDS011;42298;53.638;9.876;2024-01-27T01:52:17;24.02;;;5.85;;
56399;SDS011;42298;53.638;9.876;2024-01-27T01:54:48;21.07;;;5.23;;
56399;SDS011;42298;53.638;9.876;2024-01-27T01:57:14;27.63;;;6.60;;
56399;SDS011;42298;53.638;9.876;2024-01-27T01:59:40;24.97;;;5.20;;
56399;SDS011;42298;53.638;9.876;2024-01-27T02:02:06;27.77;;;5.70;;
56399;SDS011;42298;53.638;9.876;2024-01-27T02:04:41;32.13;;;6.70;;
56399;SDS011;42298;53.638;9.876;2024-01-27T02:07:07;26.50;;;5.23;;
56399;SDS011;42298;53.638;9.876;2024-01-27T02:09:33;32.17;;;5.43;;
56399;SDS011;42298;53.638;9.876;2024-01-27T02:11:58;26.90;;;6.47;;
56399;SDS011;42298;53.638;9.876;2024-01-27T02:14:23;27.03;;;5.50;;
56399;SDS011;42298;53.638;9.876;2024-01-27T02:16:51;29.70;;;7.30;;
56399;SDS011;42298;53.638;9.876;2024-01-27T02:19:16;27.27;;;5.40;;
56399;SDS011;42298;53.638;9.876;2024-01-27T02:21:42;30.87;;;6.30;;
56399;SDS011;42298;53.638;9.876;2024-01-27T02:24:07;22.57;;;5.90;;
56399;SDS011;42298;53.638;9.876;2024-01-27T02:26:32;25.73;;;5.87;;
56399;SDS011;42298;53.638;9.876;2024-01-27T02:28:58;20.90;;;4.70;;
56399;SDS011;42298;53.638;9.876;2024-01-27T02:31:23;23.67;;;6.00;;
56399;SDS011;42298;53.638;9.876;2024-01-27T02:33:48;27.40;;;6.33;;
56399;SDS011;42298;53.638;9.876;2024-01-27T02:36:14;28.90;;;6.27;;
56399;SDS011;42298;53.638;9.876;2024-01-27T02:38:39;24.63;;;6.00;;
56399;SDS011;42298;53.638;9.876;2024-01-27T02:41:04;27.53;;;6.47;;
56399;SDS011;42298;53.638;9.876;2024-01-27T02:43:30;24.67;;;5.60;;
56399;SDS011;42298;53.638;9.876;2024-01-27T02:45:55;21.23;;;5.20;;
56399;SDS011;42298;53.638;9.876;2024-01-27T02:48:20;22.83;;;5.60;;
56399;SDS011;42298;53.638;9.876;2024-01-27T02:50:45;26.00;;;5.90;;
56399;SDS011;42298;53.638;9.876;2024-01-27T02:53:11;25.17;;;5.13;;
56399;SDS011;42298;53.638;9.876;2024-01-27T02:55:36;25.23;;;5.73;;
56399;SDS011;42298;53.638;9.876;2024-01-27T02:58:02;32.40;;;5.80;;
56399;SDS011;42298;53.638;9.876;2024-01-27T03:00:27;29.97;;;5.27;;
56399;SDS011;42298;53.638;9.876;2024-01-27T03:02:52;26.00;;;5.63;;
56399;SDS011;42298;53.638;9.876;2024-01-27T03:05:18;23.23;;;5.00;;
56399;SDS011;42298;53.638;9.876;2024-01-27T03:07:43;28.33;;;6.10;;
56399;SDS011;42298;53.638;9.876;2024-01-27T03:10:08;28.70;;;6.27;;
56399;SDS011;42298;53.638;9.876;2024-01-27T03:12:34;28.50;;;6.93;;
56399;SDS011;42298;53.638;9.876;2024-01-27T03:14:59;29.23;;;6.13;;
56399;SDS011;42298;53.638;9.876;2024-01-27T03:17:25;28.77;;;6.00;;
56399;SDS011;42298;53.638;9.876;2024-01-27T03:19:50;22.90;;;5.73;;
56399;SDS011;42298;53.638;9.876;2024-01-27T03:22:16;24.60;;;5.63;;
56399;SDS011;42298;53.638;9.876;2024-01-27T03:24:41;28.93;;;5.60;;
56399;SDS011;42298;53.638;9.876;2024-01-27T03:27:06;19.23;;;5.93;;
56399;SDS011;42298;53.638;9.876;2024-01-27T03:29:32;28.23;;;6.90;;
56399;SDS011;42298;53.638;9.876;2024-01-27T03:31:57;24.53;;;6.07;;
56399;SDS011;42298;53.638;9.876;2024-01-27T03:34:22;31.60;;;6.43;;
56399;SDS011;42298;53.638;9.876;2024-01-27T03:36:50;27.17;;;6.40;;
56399;SDS011;42298;53.638;9.876;2024-01-27T03:39:15;29.90;;;5.70;;
56399;SDS011;42298;53.638;9.876;2024-01-27T03:41:41;28.07;;;6.73;;
56399;SDS011;42298;53.638;9.876;2024-01-27T03:44:06;25.43;;;6.00;;
56399;SDS011;42298;53.638;9.876;2024-01-27T03:46:31;25.40;;;5.87;;
56399;SDS011;42298;53.638;9.876;2024-01-27T03:48:56;23.00;;;5.10;;
56399;SDS011;42298;53.638;9.876;2024-01-27T03:51:22;32.10;;;6.50;;
56399;SDS011;42298;53.638;9.876;2024-01-27T03:53:48;31.13;;;5.83;;
56399;SDS011;42298;53.638;9.876;2024-01-27T03:56:13;28.97;;;5.47;;
56399;SDS011;42298;53.638;9.876;2024-01-27T03:58:38;26.63;;;5.47;;
56399;SDS011;42298;53.638;9.876;2024-01-27T04:01:04;28.67;;;5.93;;
56399;SDS011;42298;53.638;9.876;2024-01-27T04:03:29;30.33;;;6.23;;
56399;SDS011;42298;53.638;9.876;2024-01-27T04:05:55;27.50;;;5.70;;
56399;SDS011;42298;53.638;9.876;2024-01-27T04:08:20;24.00;;;6.20;;
56399;SDS011;42298;53.638;9.876;2024-01-27T04:10:45;31.17;;;5.93;;
56399;SDS011;42298;53.638;9.876;2024-01-27T04:13:10;23.53;;;5.00;;
56399;SDS011;42298;53.638;9.876;2024-01-27T04:15:36;29.50;;;6.07;;
56399;SDS011;42298;53.638;9.876;2024-01-27T04:18:04;28.67;;;6.63;;
56399;SDS011;42298;53.638;9.876;2024-01-27T04:20:32;21.13;;;6.27;;
56399;SDS011;42298;53.638;9.876;2024-01-27T04:22:58;27.97;;;5.93;;
56399;SDS011;42298;53.638;9.876;2024-01-27T04:25:23;24.30;;;5.50;;
56399;SDS011;42298;53.638;9.876;2024-01-27T04:27:48;32.60;;;6.43;;
56399;SDS011;42298;53.638;9.876;2024-01-27T04:30:14;35.20;;;6.23;;
56399;SDS011;42298;53.638;9.876;2024-01-27T04:32:39;29.13;;;5.53;;
56399;SDS011;42298;53.638;9.876;2024-01-27T04:35:08;27.20;;;6.93;;
56399;SDS011;42298;53.638;9.876;2024-01-27T04:37:34;24.50;;;5.43;;
56399;SDS011;42298;53.638;9.876;2024-01-27T04:39:59;28.23;;;5.43;;
56399;SDS011;42298;53.638;9.876;2024-01-27T04:42:25;31.30;;;5.70;;
56399;SDS011;42298;53.638;9.876;2024-01-27T04:44:50;30.70;;;8.02;;
56399;SDS011;42298;53.638;9.876;2024-01-27T04:47:15;27.53;;;6.83;;
56399;SDS011;42298;53.638;9.876;2024-01-27T04:49:41;26.33;;;5.93;;
56399;SDS011;42298;53.638;9.876;2024-01-27T04:52:07;25.07;;;6.23;;
56399;SDS011;42298;53.638;9.876;2024-01-27T04:54:32;31.03;;;7.07;;
56399;SDS011;42298;53.638;9.876;2024-01-27T04:56:57;22.90;;;5.00;;
56399;SDS011;42298;53.638;9.876;2024-01-27T04:59:23;30.17;;;6.43;;
56399;SDS011;42298;53.638;9.876;2024-01-27T05:01:50;29.90;;;5.33;;
56399;SDS011;42298;53.638;9.876;2024-01-27T05:04:15;30.57;;;6.67;;
56399;SDS011;42298;53.638;9.876;2024-01-27T05:06:44;25.77;;;6.27;;
56399;SDS011;42298;53.638;9.876;2024-01-27T05:09:10;26.33;;;6.00;;
56399;SDS011;42298;53.638;9.876;2024-01-27T05:11:35;33.60;;;6.13;;
56399;SDS011;42298;53.638;9.876;2024-01-27T05:14:01;27.50;;;5.90;;
56399;SDS011;42298;53.638;9.876;2024-01-27T05:16:27;25.73;;;5.47;;
56399;SDS011;42298;53.638;9.876;2024-01-27T05:18:53;25.30;;;5.37;;
56399;SDS011;42298;53.638;9.876;2024-01-27T05:21:18;27.83;;;5.83;;
56399;SDS011;42298;53.638;9.876;2024-01-27T05:23:43;28.23;;;6.27;;
56399;SDS011;42298;53.638;9.876;2024-01-27T05:26:09;20.03;;;4.90;;
56399;SDS011;42298;53.638;9.876;2024-01-27T05:28:36;32.90;;;6.17;;
56399;SDS011;42298;53.638;9.876;2024-01-27T05:31:02;28.00;;;5.97;;
56399;SDS011;42298;53.638;9.876;2024-01-27T05:33:28;25.53;;;5.77;;
56399;SDS011;42298;53.638;9.876;2024-01-27T05:35:53;31.97;;;6.10;;
56399;SDS011;42298;53.638;9.876;2024-01-27T05:38:19;30.30;;;5.17;;
56399;SDS011;42298;53.638;9.876;2024-01-27T05:40:44;23.90;;;5.03;;
56399;SDS011;42298;53.638;9.876;2024-01-27T05:43:10;33.13;;;6.03;;
56399;SDS011;42298;53.638;9.876;2024-01-27T05:45:35;24.00;;;5.70;;
56399;SDS011;42298;53.638;9.876;2024-01-27T05:48:01;30.10;;;5.77;;
56399;SDS011;42298;53.638;9.876;2024-01-27T05:50:27;25.73;;;5.80;;
56399;SDS011;42298;53.638;9.876;2024-01-27T05:52:53;26.50;;;7.17;;
56399;SDS011;42298;53.638;9.876;2024-01-27T05:55:18;25.70;;;5.93;;
56399;SDS011;42298;53.638;9.876;2024-01-27T05:57:44;25.47;;;4.60;;
56399;SDS011;42298;53.638;9.876;2024-01-27T06:00:09;27.93;;;5.57;;
56399;SDS011;42298;53.638;9.876;2024-01-27T06:02:35;27.40;;;6.30;;
56399;SDS011;42298;53.638;9.876;2024-01-27T06:05:02;25.53;;;6.03;;
56399;SDS011;42298;53.638;9.876;2024-01-27T06:07:27;25.30;;;6.37;;
56399;SDS011;42298;53.638;9.876;2024-01-27T06:09:52;28.23;;;5.90;;
56399;SDS011;42298;53.638;9.876;2024-01-27T06:12:18;33.00;;;6.20;;
56399;SDS011;42298;53.638;9.876;2024-01-27T06:14:44;24.97;;;6.47;;
56399;SDS011;42298;53.638;9.876;2024-01-27T06:17:09;27.90;;;6.00;;
56399;SDS011;42298;53.638;9.876;2024-01-27T06:19:34;26.80;;;5.63;;
56399;SDS011;42298;53.638;9.876;2024-01-27T06:22:00;24.23;;;6.23;;
56399;SDS011;42298;53.638;9.876;2024-01-27T06:24:25;26.90;;;5.53;;
56399;SDS011;42298;53.638;9.876;2024-01-27T06:26:51;21.77;;;5.20;;
56399;SDS011;42298;53.638;9.876;2024-01-27T06:29:16;21.47;;;5.90;;
56399;SDS011;42298;53.638;9.876;2024-01-27T06:31:43;27.13;;;5.30;;
56399;SDS011;42298;53.638;9.876;2024-01-27T06:34:08;25.67;;;5.20;;
56399;SDS011;42298;53.638;9.876;2024-01-27T06:36:33;28.80;;;6.00;;
56399;SDS011;42298;53.638;9.876;2024-01-27T06:38:59;27.43;;;6.43;;
56399;SDS011;42298;53.638;9.876;2024-01-27T06:41:24;26.13;;;5.83;;
56399;SDS011;42298;53.638;9.876;2024-01-27T06:43:49;27.33;;;5.37;;
56399;SDS011;42298;53.638;9.876;2024-01-27T06:46:15;26.93;;;6.60;;
56399;SDS011;42298;53.638;9.876;2024-01-27T06:48:40;28.70;;;6.03;;
56399;SDS011;42298;53.638;9.876;2024-01-27T06:51:05;28.23;;;5.70;;
56399;SDS011;42298;53.638;9.876;2024-01-27T06:53:31;28.00;;;5.30;;
56399;SDS011;42298;53.638;9.876;2024-01-27T06:55:56;24.63;;;5.27;;
56399;SDS011;42298;53.638;9.876;2024-01-27T06:58:21;35.47;;;7.30;;
56399;SDS011;42298;53.638;9.876;2024-01-27T07:00:47;32.17;;;6.43;;
56399;SDS011;42298;53.638;9.876;2024-01-27T07:03:13;30.57;;;5.93;;
56399;SDS011;42298;53.638;9.876;2024-01-27T07:05:38;23.03;;;6.00;;
56399;SDS011;42298;53.638;9.876;2024-01-27T07:08:07;26.80;;;6.32;;
56399;SDS011;42298;53.638;9.876;2024-01-27T07:10:33;25.83;;;6.07;;
56399;SDS011;42298;53.638;9.876;2024-01-27T07:12:59;18.10;;;4.77;;
56399;SDS011;42298;53.638;9.876;2024-01-27T07:15:25;28.83;;;5.40;;
56399;SDS011;42298;53.638;9.876;2024-01-27T07:17:50;24.97;;;5.87;;
56399;SDS011;42298;53.638;9.876;2024-01-27T07:20:16;27.07;;;5.70;;
56399;SDS011;42298;53.638;9.876;2024-01-27T07:22:41;21.33;;;4.57;;
56399;SDS011;42298;53.638;9.876;2024-01-27T07:25:06;22.10;;;5.07;;
56399;SDS011;42298;53.638;9.876;2024-01-27T07:27:35;25.60;;;6.33;;
56399;SDS011;42298;53.638;9.876;2024-01-27T07:30:00;27.43;;;5.83;;
56399;SDS011;42298;53.638;9.876;2024-01-27T07:32:26;29.70;;;6.13;;
56399;SDS011;42298;53.638;9.876;2024-01-27T07:34:51;22.43;;;4.80;;
56399;SDS011;42298;53.638;9.876;2024-01-27T07:37:16;23.83;;;5.60;;
56399;SDS011;42298;53.638;9.876;2024-01-27T07:39:42;24.67;;;5.50;;
56399;SDS011;42298;53.638;9.876;2024-01-27T07:42:07;30.03;;;6.00;;
56399;SDS011;42298;53.638;9.876;2024-01-27T07:44:32;22.03;;;5.23;;
56399;SDS011;42298;53.638;9.876;2024-01-27T07:46:58;26.30;;;5.20;;
56399;SDS011;42298;53.638;9.876;2024-01-27T07:49:24;26.50;;;6.90;;
56399;SDS011;42298;53.638;9.876;2024-01-27T07:51:50;21.57;;;5.10;;
56399;SDS011;42298;53.638;9.876;2024-01-27T07:54:15;24.13;;;5.70;;
56399;SDS011;42298;53.638;9.876;2024-01-27T07:56:40;26.53;;;6.13;;
56399;SDS011;42298;53.638;9.876;2024-01-27T07:59:06;22.47;;;4.83;;
56399;SDS011;42298;53.638;9.876;2024-01-27T08:01:38;27.83;;;5.30;;
56399;SDS011;42298;53.638;9.876;2024-01-27T08:04:04;21.20;;;5.23;;
56399;SDS011;42298;53.638;9.876;2024-01-27T08:06:29;27.07;;;5.10;;
56399;SDS011;42298;53.638;9.876;2024-01-27T08:08:55;26.93;;;5.53;;
56399;SDS011;42298;53.638;9.876;2024-01-27T08:11:20;23.03;;;4.67;;
56399;SDS011;42298;53.638;9.876;2024-01-27T08:13:46;22.83;;;5.13;;
56399;SDS011;42298;53.638;9.876;2024-01-27T08:16:13;23.47;;;5.90;;
56399;SDS011;42298;53.638;9.876;2024-01-27T08:18:39;26.23;;;5.07;;
56399;SDS011;42298;53.638;9.876;2024-01-27T08:21:07;19.13;;;5.30;;
56399;SDS011;42298;53.638;9.876;2024-01-27T08:23:32;23.57;;;5.20;;
56399;SDS011;42298;53.638;9.876;2024-01-27T08:25:58;22.27;;;5.47;;
56399;SDS011;42298;53.638;9.876;2024-01-27T08:28:23;23.77;;;5.57;;
56399;SDS011;42298;53.638;9.876;2024-01-27T08:30:49;24.13;;;6.53;;
56399;SDS011;42298;53.638;9.876;2024-01-27T08:33:15;21.73;;;5.00;;
56399;SDS011;42298;53.638;9.876;2024-01-27T08:35:41;22.17;;;5.83;;
56399;SDS011;42298;53.638;9.876;2024-01-27T08:38:06;20.33;;;4.97;;
56399;SDS011;42298;53.638;9.876;2024-01-27T08:40:32;21.17;;;5.63;;
56399;SDS011;42298;53.638;9.876;2024-01-27T08:42:57;22.80;;;4.87;;
56399;SDS011;42298;53.638;9.876;2024-01-27T08:45:22;20.40;;;5.10;;
56399;SDS011;42298;53.638;9.876;2024-01-27T08:47:48;19.97;;;5.40;;
56399;SDS011;42298;53.638;9.876;2024-01-27T08:50:14;27.93;;;5.03;;
56399;SDS011;42298;53.638;9.876;2024-01-27T08:52:39;21.97;;;4.70;;
56399;SDS011;42298;53.638;9.876;2024-01-27T08:55:04;16.83;;;4.27;;
56399;SDS011;42298;53.638;9.876;2024-01-27T08:57:30;20.60;;;4.67;;
56399;SDS011;42298;53.638;9.876;2024-01-27T08:59:55;22.37;;;4.60;;
56399;SDS011;42298;53.638;9.876;2024-01-27T09:02:21;20.63;;;5.27;;
56399;SDS011;42298;53.638;9.876;2024-01-27T09:04:46;25.80;;;4.90;;
56399;SDS011;42298;53.638;9.876;2024-01-27T09:07:11;23.65;;;6.05;;
56399;SDS011;42298;53.638;9.876;2024-01-27T09:09:37;19.70;;;5.03;;
56399;SDS011;42298;53.638;9.876;2024-01-27T09:12:05;17.77;;;5.07;;
56399;SDS011;42298;53.638;9.876;2024-01-27T09:14:32;25.83;;;5.93;;
56399;SDS011;42298;53.638;9.876;2024-01-27T09:16:58;24.97;;;5.30;;
56399;SDS011;42298;53.638;9.876;2024-01-27T09:19:24;21.30;;;4.53;;
56399;SDS011;42298;53.638;9.876;2024-01-27T09:21:50;22.17;;;4.33;;
56399;SDS011;42298;53.638;9.876;2024-01-27T09:24:15;22.73;;;5.33;;
56399;SDS011;42298;53.638;9.876;2024-01-27T09:26:41;22.50;;;5.40;;
56399;SDS011;42298;53.638;9.876;2024-01-27T09:29:06;19.00;;;5.30;;
56399;SDS011;42298;53.638;9.876;2024-01-27T09:31:32;18.77;;;5.10;;
56399;SDS011;42298;53.638;9.876;2024-01-27T09:33:57;16.93;;;4.70;;
56399;SDS011;42298;53.638;9.876;2024-01-27T09:36:22;19.30;;;4.47;;
56399;SDS011;42298;53.638;9.876;2024-01-27T09:38:50;22.83;;;5.13;;
56399;SDS011;42298;53.638;9.876;2024-01-27T09:41:17;19.03;;;4.60;;
56399;SDS011;42298;53.638;9.876;2024-01-27T09:43:43;20.73;;;4.20;;
56399;SDS011;42298;53.638;9.876;2024-01-27T09:46:11;17.83;;;4.27;;
56399;SDS011;42298;53.638;9.876;2024-01-27T09:48:36;18.10;;;4.70;;
56399;SDS011;42298;53.638;9.876;2024-01-27T09:51:03;23.03;;;5.27;;
56399;SDS011;42298;53.638;9.876;2024-01-27T09:53:29;19.13;;;5.33;;
56399;SDS011;42298;53.638;9.876;2024-01-27T09:55:55;21.83;;;5.03;;
56399;SDS011;42298;53.638;9.876;2024-01-27T09:58:23;18.50;;;4.50;;
56399;SDS011;42298;53.638;9.876;2024-01-27T10:00:52;16.20;;;4.20;;
56399;SDS011;42298;53.638;9.876;2024-01-27T10:03:23;19.42;;;4.90;;
56399;SDS011;42298;53.638;9.876;2024-01-27T10:05:49;22.23;;;6.13;;
56399;SDS011;42298;53.638;9.876;2024-01-27T10:08:17;18.53;;;4.77;;
56399;SDS011;42298;53.638;9.876;2024-01-27T10:10:42;19.93;;;4.87;;
56399;SDS011;42298;53.638;9.876;2024-01-27T10:13:07;24.30;;;4.93;;
56399;SDS011;42298;53.638;9.876;2024-01-27T10:15:36;20.93;;;4.50;;
56399;SDS011;42298;53.638;9.876;2024-01-27T10:18:05;27.27;;;5.07;;
56399;SDS011;42298;53.638;9.876;2024-01-27T10:20:31;22.93;;;4.67;;
56399;SDS011;42298;53.638;9.876;2024-01-27T10:22:57;16.90;;;4.57;;
56399;SDS011;42298;53.638;9.876;2024-01-27T10:25:22;21.07;;;4.10;;
56399;SDS011;42298;53.638;9.876;2024-01-27T10:27:48;20.02;;;5.60;;
56399;SDS011;42298;53.638;9.876;2024-01-27T10:30:16;21.37;;;4.37;;
56399;SDS011;42298;53.638;9.876;2024-01-27T10:32:43;14.60;;;4.03;;
56399;SDS011;42298;53.638;9.876;2024-01-27T10:35:08;19.67;;;4.80;;
56399;SDS011;42298;53.638;9.876;2024-01-27T10:37:36;20.77;;;4.17;;
56399;SDS011;42298;53.638;9.876;2024-01-27T10:40:06;23.47;;;4.87;;
56399;SDS011;42298;53.638;9.876;2024-01-27T10:42:36;19.00;;;4.77;;
56399;SDS011;42298;53.638;9.876;2024-01-27T10:45:02;20.13;;;4.73;;
56399;SDS011;42298;53.638;9.876;2024-01-27T10:47:29;21.83;;;5.20;;
56399;SDS011;42298;53.638;9.876;2024-01-27T10:49:57;18.50;;;5.63;;
56399;SDS011;42298;53.638;9.876;2024-01-27T10:52:28;15.57;;;4.40;;
56399;SDS011;42298;53.638;9.876;2024-01-27T10:54:58;16.43;;;4.37;;
56399;SDS011;42298;53.638;9.876;2024-01-27T10:57:28;19.63;;;4.20;;
56399;SDS011;42298;53.638;9.876;2024-01-27T10:59:54;22.60;;;5.17;;
56399;SDS011;42298;53.638;9.876;2024-01-27T11:02:21;19.27;;;4.30;;
56399;SDS011;42298;53.638;9.876;2024-01-27T11:04:48;19.07;;;4.30;;
56399;SDS011;42298;53.638;9.876;2024-01-27T11:07:14;19.87;;;5.17;;
56399;SDS011;42298;53.638;9.876;2024-01-27T11:09:39;15.97;;;4.73;;
56399;SDS011;42298;53.638;9.876;2024-01-27T11:12:07;21.13;;;5.57;;
56399;SDS011;42298;53.638;9.876;2024-01-27T11:14:33;18.10;;;4.57;;
56399;SDS011;42298;53.638;9.876;2024-01-27T11:16:59;21.47;;;5.30;;
56399;SDS011;42298;53.638;9.876;2024-01-27T11:19:24;15.27;;;4.83;;
56399;SDS011;42298;53.638;9.876;2024-01-27T11:22:02;15.37;;;4.63;;
56399;SDS011;42298;53.638;9.876;2024-01-27T11:24:28;13.10;;;3.57;;
56399;SDS011;42298;53.638;9.876;2024-01-27T11:27:00;19.90;;;4.93;;
56399;SDS011;42298;53.638;9.876;2024-01-27T11:29:26;17.83;;;4.47;;
56399;SDS011;42298;53.638;9.876;2024-01-27T11:31:54;17.43;;;4.30;;
56399;SDS011;42298;53.638;9.876;2024-01-27T11:34:19;18.30;;;4.47;;
56399;SDS011;42298;53.638;9.876;2024-01-27T11:36:45;18.87;;;3.50;;
56399;SDS011;42298;53.638;9.876;2024-01-27T11:39:26;17.33;;;4.20;;
56399;SDS011;42298;53.638;9.876;2024-01-27T11:41:52;18.23;;;5.23;;
56399;SDS011;42298;53.638;9.876;2024-01-27T11:44:18;19.20;;;4.53;;
56399;SDS011;42298;53.638;9.876;2024-01-27T11:46:44;17.07;;;4.47;;
56399;SDS011;42298;53.638;9.876;2024-01-27T11:49:14;14.80;;;4.03;;
56399;SDS011;42298;53.638;9.876;2024-01-27T11:51:43;18.97;;;4.70;;
56399;SDS011;42298;53.638;9.876;2024-01-27T11:54:08;16.70;;;4.20;;
56399;SDS011;42298;53.638;9.876;2024-01-27T11:56:34;19.30;;;4.20;;
56399;SDS011;42298;53.638;9.876;2024-01-27T11:58:59;16.47;;;4.13;;
56399;SDS011;42298;53.638;9.876;2024-01-27T12:01:24;17.77;;;4.23;;
56399;SDS011;42298;53.638;9.876;2024-01-27T12:03:50;20.17;;;4.67;;
56399;SDS011;42298;53.638;9.876;2024-01-27T12:06:15;18.23;;;3.60;;
56399;SDS011;42298;53.638;9.876;2024-01-27T12:08:41;20.03;;;4.60;;
56399;SDS011;42298;53.638;9.876;2024-01-27T12:11:13;14.97;;;4.53;;
56399;SDS011;42298;53.638;9.876;2024-01-27T12:13:39;13.83;;;3.90;;
56399;SDS011;42298;53.638;9.876;2024-01-27T12:16:05;20.03;;;4.57;;
56399;SDS011;42298;53.638;9.876;2024-01-27T12:18:30;17.03;;;4.27;;
56399;SDS011;42298;53.638;9.876;2024-01-27T12:20:56;17.43;;;3.80;;
56399;SDS011;42298;53.638;9.876;2024-01-27T12:23:24;20.23;;;4.80;;
56399;SDS011;42298;53.638;9.876;2024-01-27T12:25:53;19.50;;;4.90;;
56399;SDS011;42298;53.638;9.876;2024-01-27T12:28:20;23.13;;;4.90;;
56399;SDS011;42298;53.638;9.876;2024-01-27T12:30:47;21.93;;;4.53;;
56399;SDS011;42298;53.638;9.876;2024-01-27T12:33:14;18.17;;;4.87;;
56399;SDS011;42298;53.638;9.876;2024-01-27T12:35:39;18.03;;;5.00;;
56399;SDS011;42298;53.638;9.876;2024-01-27T12:38:05;16.60;;;4.40;;
56399;SDS011;42298;53.638;9.876;2024-01-27T12:40:31;17.00;;;4.17;;
56399;SDS011;42298;53.638;9.876;2024-01-27T12:42:56;18.37;;;4.43;;
56399;SDS011;42298;53.638;9.876;2024-01-27T12:45:22;20.65;;;5.50;;
56399;SDS011;42298;53.638;9.876;2024-01-27T12:47:47;19.07;;;4.27;;
56399;SDS011;42298;53.638;9.876;2024-01-27T12:50:13;17.10;;;4.30;;
56399;SDS011;42298;53.638;9.876;2024-01-27T12:52:38;19.37;;;4.33;;
56399;SDS011;42298;53.638;9.876;2024-01-27T12:55:04;15.73;;;3.90;;
56399;SDS011;42298;53.638;9.876;2024-01-27T12:57:30;18.40;;;4.90;;
56399;SDS011;42298;53.638;9.876;2024-01-27T12:59:56;17.93;;;3.87;;
56399;SDS011;42298;53.638;9.876;2024-01-27T13:02:21;14.83;;;4.00;;
56399;SDS011;42298;53.638;9.876;2024-01-27T13:04:46;13.27;;;3.30;;
56399;SDS011;42298;53.638;9.876;2024-01-27T13:07:12;13.17;;;3.60;;
56399;SDS011;42298;53.638;9.876;2024-01-27T13:09:37;15.23;;;4.67;;
56399;SDS011;42298;53.638;9.876;2024-01-27T13:12:02;17.27;;;4.60;;
56399;SDS011;42298;53.638;9.876;2024-01-27T13:14:28;17.13;;;4.30;;
56399;SDS011;42298;53.638;9.876;2024-01-27T13:16:54;21.77;;;4.77;;
56399;SDS011;42298;53.638;9.876;2024-01-27T13:19:19;21.17;;;5.13;;
56399;SDS011;42298;53.638;9.876;2024-01-27T13:21:45;16.07;;;4.27;;
56399;SDS011;42298;53.638;9.876;2024-01-27T13:24:10;18.33;;;4.37;;
56399;SDS011;42298;53.638;9.876;2024-01-27T13:26:36;18.33;;;4.87;;
56399;SDS011;42298;53.638;9.876;2024-01-27T13:29:03;19.50;;;4.60;;
56399;SDS011;42298;53.638;9.876;2024-01-27T13:31:30;16.40;;;4.30;;
56399;SDS011;42298;53.638;9.876;2024-01-27T13:33:56;18.00;;;4.17;;
56399;SDS011;42298;53.638;9.876;2024-01-27T13:36:22;15.27;;;4.00;;
56399;SDS011;42298;53.638;9.876;2024-01-27T13:38:48;19.13;;;4.97;;
56399;SDS011;42298;53.638;9.876;2024-01-27T13:41:13;19.80;;;5.00;;
56399;SDS011;42298;53.638;9.876;2024-01-27T13:43:39;19.93;;;4.20;;
56399;SDS011;42298;53.638;9.876;2024-01-27T13:46:04;21.30;;;4.97;;
56399;SDS011;42298;53.638;9.876;2024-01-27T13:48:29;15.60;;;4.80;;
56399;SDS011;42298;53.638;9.876;2024-01-27T13:50:55;18.67;;;4.13;;
56399;SDS011;42298;53.638;9.876;2024-01-27T13:53:20;19.00;;;5.00;;
56399;SDS011;42298;53.638;9.876;2024-01-27T13:55:46;19.63;;;4.33;;
56399;SDS011;42298;53.638;9.876;2024-01-27T13:58:11;17.03;;;4.70;;
56399;SDS011;42298;53.638;9.876;2024-01-27T14:00:37;18.77;;;4.47;;
56399;SDS011;42298;53.638;9.876;2024-01-27T14:03:02;14.57;;;3.97;;
56399;SDS011;42298;53.638;9.876;2024-01-27T14:05:28;15.43;;;4.73;;
56399;SDS011;42298;53.638;9.876;2024-01-27T14:07:54;16.70;;;4.30;;
56399;SDS011;42298;53.638;9.876;2024-01-27T14:10:20;16.23;;;4.17;;
56399;SDS011;42298;53.638;9.876;2024-01-27T14:12:45;16.37;;;4.37;;
56399;SDS011;42298;53.638;9.876;2024-01-27T14:15:11;13.80;;;3.90;;
56399;SDS011;42298;53.638;9.876;2024-01-27T14:17:36;18.37;;;3.50;;
56399;SDS011;42298;53.638;9.876;2024-01-27T14:20:02;17.73;;;4.17;;
56399;SDS011;42298;53.638;9.876;2024-01-27T14:22:28;16.23;;;4.37;;
56399;SDS011;42298;53.638;9.876;2024-01-27T14:24:54;20.70;;;3.83;;